Latest Weather Observations for Inner Beacon

IDQ60901

Issued at 3:51 am EST Saturday 17 November 2018 (issued every 10 minutes, with the page automatically refreshed every 10 minutes)

About weather observations | Map of Brisbane area stations | Latest observations for Brisbane area | Other Formats
Station Details ID: 040926 Name: INNER RECIPROCAL MARKER Lat: -27.26 Lon: 153.24 Height: 20.0 m
Data from the previous 72 hours. | See also: Recent months for locations in Queensland
Date/Time
EST
Temp
°C
App
Temp
°C
Dew
Point
°C
Rel
Hum
%
Delta-T
°C
Wind Press
QNH
hPa
Press
MSL
hPa
Rain since
9am
mm
Dir  Spd
km/h
Gust
km/h
Spd
kts
Gust
kts
17/03:30am - - - - - NNE 11 13 6 7 - - -
17/03:00am - - - - - NNE 11 13 6 7 - - -
17/02:30am - - - - - NE 9 11 5 6 - - -
17/02:00am - - - - - ENE 7 9 4 5 - - -
17/01:30am - - - - - ENE 9 11 5 6 - - -
17/01:00am - - - - - ENE 9 11 5 6 - - -
17/12:30am - - - - - NE 11 13 6 7 - - -
17/12:00am - - - - - NE 9 11 5 6 - - -
 
Date/Time
EST
Temp
°C
App
Temp
°C
Dew
Point
°C
Rel
Hum
%
Delta-T
°C
Wind Press
QNH
hPa
Press
MSL
hPa
Rain since
9am
mm
Dir  Spd
km/h
Gust
km/h
Spd
kts
Gust
kts
16/11:30pm - - - - - NE 9 11 5 6 - - -
16/11:00pm - - - - - ENE 11 15 6 8 - - -
16/10:30pm - - - - - ENE 11 13 6 7 - - -
16/10:00pm - - - - - ENE 13 15 7 8 - - -
16/09:30pm - - - - - ENE 13 15 7 8 - - -
16/09:00pm - - - - - NE 13 15 7 8 - - -
16/08:30pm - - - - - NE 17 19 9 10 - - -
16/08:00pm - - - - - NE 15 19 8 10 - - -
16/07:30pm - - - - - NE 20 22 11 12 - - -
16/07:00pm - - - - - NNE 22 24 12 13 - - -
16/06:30pm - - - - - NE 22 24 12 13 - - -
16/06:00pm - - - - - NE 22 28 12 15 - - -
16/05:30pm - - - - - NE 24 28 13 15 - - -
16/05:00pm - - - - - NE 22 28 12 15 - - -
16/04:30pm - - - - - NE 20 24 11 13 - - -
16/04:00pm - - - - - ENE 24 26 13 14 - - -
16/03:30pm - - - - - NNE 17 22 9 12 - - -
16/03:00pm - - - - - NNE 19 20 10 11 - - -
16/02:30pm - - - - - NNE 17 19 9 10 - - -
16/02:00pm - - - - - NNE 17 19 9 10 - - -
16/01:30pm - - - - - NNE 13 17 7 9 - - -
16/01:00pm - - - - - NNE 9 13 5 7 - - -
16/12:30pm - - - - - N 6 9 3 5 - - -
16/12:00pm - - - - - N 6 9 3 5 - - -
16/11:30am - - - - - NNW 6 7 3 4 - - -
16/11:00am - - - - - NNE 2 6 1 3 - - -
16/10:30am - - - - - CALM 0 0 0 0 - - -
16/10:00am - - - - - CALM 0 2 0 1 - - -
16/09:30am - - - - - CALM 0 0 0 0 - - -
16/09:00am - - - - - CALM 0 0 0 0 - - -
16/08:30am - - - - - CALM 0 0 0 0 - - -
16/08:00am - - - - - N 6 7 3 4 - - -
16/07:30am - - - - - NNE 6 7 3 4 - - -
16/07:00am - - - - - NE 7 9 4 5 - - -
16/06:30am - - - - - NE 7 7 4 4 - - -
16/06:00am - - - - - ENE 6 6 3 3 - - -
16/05:30am - - - - - ENE 4 6 2 3 - - -
16/05:00am - - - - - ENE 4 6 2 3 - - -
16/04:30am - - - - - NE 4 6 2 3 - - -
16/04:00am - - - - - NE 6 7 3 4 - - -
16/03:30am - - - - - NNE 6 7 3 4 - - -
16/03:00am - - - - - NE 7 9 4 5 - - -
16/02:30am - - - - - NE 7 9 4 5 - - -
16/02:00am - - - - - NNE 9 11 5 6 - - -
16/01:30am - - - - - NE 7 9 4 5 - - -
16/01:00am - - - - - NE 9 11 5 6 - - -
16/12:30am - - - - - E 9 11 5 6 - - -
16/12:00am - - - - - ENE 9 11 5 6 - - -
 
Date/Time
EST
Temp
°C
App
Temp
°C
Dew
Point
°C
Rel
Hum
%
Delta-T
°C
Wind Press
QNH
hPa
Press
MSL
hPa
Rain since
9am
mm
Dir  Spd
km/h
Gust
km/h
Spd
kts
Gust
kts
15/11:30pm - - - - - NE 11 13 6 7 - - -
15/11:00pm - - - - - NE 11 15 6 8 - - -
15/10:30pm - - - - - NE 13 17 7 9 - - -
15/10:00pm - - - - - NE 13 17 7 9 - - -
15/09:30pm - - - - - NE 13 17 7 9 - - -
15/09:00pm - - - - - NNE 15 17 8 9 - - -
15/08:30pm - - - - - NNE 19 20 10 11 - - -
15/08:00pm - - - - - NNE 19 20 10 11 - - -
15/07:30pm - - - - - NNE 17 20 9 11 - - -
15/07:00pm - - - - - NNE 15 17 8 9 - - -
15/06:30pm - - - - - NE 19 20 10 11 - - -
15/06:00pm - - - - - NE 20 22 11 12 - - -
15/05:30pm - - - - - NE 20 22 11 12 - - -
15/05:00pm - - - - - NE 20 26 11 14 - - -
15/04:30pm - - - - - N 24 28 13 15 - - -
15/04:00pm - - - - - NNE 24 28 13 15 - - -
15/03:30pm - - - - - N 24 28 13 15 - - -
15/03:00pm - - - - - N 24 28 13 15 - - -
15/02:30pm - - - - - NNE 22 24 12 13 - - -
15/02:00pm - - - - - NNE 20 24 11 13 - - -
15/01:30pm - - - - - NNE 17 20 9 11 - - -
15/01:00pm - - - - - NNE 17 17 9 9 - - -
15/12:30pm - - - - - NE 15 17 8 9 - - -
15/12:00pm - - - - - NNE 17 19 9 10 - - -
15/11:30am - - - - - N 13 15 7 8 - - -
15/11:00am - - - - - N 9 11 5 6 - - -
15/10:30am - - - - - NNE 9 13 5 7 - - -
15/10:00am - - - - - N 9 11 5 6 - - -
15/09:30am - - - - - N 7 9 4 5 - - -
15/09:00am - - - - - N 7 9 4 5 - - -
15/08:30am - - - - - NNE 7 11 4 6 - - -
15/08:00am - - - - - N 7 9 4 5 - - -
15/07:30am - - - - - NNE 9 11 5 6 - - -
15/07:00am - - - - - NNE 9 13 5 7 - - -
15/06:30am - - - - - NNE 9 9 5 5 - - -
15/06:00am - - - - - NE 11 13 6 7 - - -
15/05:30am - - - - - NNE 9 11 5 6 - - -
15/05:00am - - - - - NE 11 13 6 7 - - -
15/04:30am - - - - - NNE 13 13 7 7 - - -
15/04:00am - - - - - NE 11 13 6 7 - - -
15/03:30am - - - - - NE 11 13 6 7 - - -
15/03:00am - - - - - NE 11 13 6 7 - - -
15/02:30am - - - - - NE 11 13 6 7 - - -
15/02:00am - - - - - NE 13 15 7 8 - - -
15/01:30am - - - - - NNE 13 15 7 8 - - -
15/01:00am - - - - - NNE 15 17 8 9 - - -
15/12:30am - - - - - NNE 13 15 7 8 - - -
15/12:00am - - - - - NE 11 13 6 7 - - -
 
Date/Time
EST
Temp
°C
App
Temp
°C
Dew
Point
°C
Rel
Hum
%
Delta-T
°C
Wind Press
QNH
hPa
Press
MSL
hPa
Rain since
9am
mm
Dir  Spd
km/h
Gust
km/h
Spd
kts
Gust
kts
14/11:30pm - - - - - NE 11 13 6 7 - - -
14/11:00pm - - - - - NNE 15 17 8 9 - - -
14/10:30pm - - - - - NNE 15 19 8 10 - - -
14/10:00pm - - - - - NNE 15 17 8 9 - - -
14/09:30pm - - - - - NNE 17 19 9 10 - - -
14/09:00pm - - - - - NNE 17 20 9 11 - - -
14/08:30pm - - - - - NNE 15 19 8 10 - - -
14/08:00pm - - - - - NNE 17 20 9 11 - - -
14/07:30pm - - - - - NNE 19 22 10 12 - - -
14/07:00pm - - - - - NE 20 24 11 13 - - -
14/06:30pm - - - - - NE 20 24 11 13 - - -
14/06:00pm - - - - - NE 20 24 11 13 - - -
14/05:30pm - - - - - ENE 22 24 12 13 - - -
14/05:00pm - - - - - NE 17 20 9 11 - - -
14/04:30pm - - - - - NNE 20 24 11 13 - - -
14/04:00pm - - - - - N 15 20 8 11 - - -
14/03:30pm - - - - - NNE 11 15 6 8 - - -
14/03:00pm - - - - - NNE 13 15 7 8 - - -
14/02:30pm - - - - - NNE 17 20 9 11 - - -
14/02:00pm - - - - - NNE 19 20 10 11 - - -
14/01:30pm - - - - - NNE 15 17 8 9 - - -
14/01:00pm - - - - - NNE 11 13 6 7 - - -
14/12:30pm - - - - - N 19 20 10 11 - - -
14/12:00pm - - - - - N 17 22 9 12 - - -
14/11:30am - - - - - NNW 6 7 3 4 - - -
14/11:00am - - - - - CALM 0 2 0 1 - - -
14/10:30am - - - - - NNW 4 7 2 4 - - -
14/10:00am - - - - - SSW 7 11 4 6 - - -
14/09:30am - - - - - SW 11 13 6 7 - - -
14/09:00am - - - - - SSW 11 13 6 7 - - -
14/08:30am - - - - - S 11 13 6 7 - - -
14/08:00am - - - - - SSW 15 17 8 9 - - -
14/07:30am - - - - - SSW 13 15 7 8 - - -
14/07:00am - - - - - S 15 17 8 9 - - -
14/06:30am - - - - - SSW 15 17 8 9 - - -
14/06:00am - - - - - SSW 15 19 8 10 - - -
14/05:30am - - - - - SW 13 17 7 9 - - -
14/05:00am - - - - - SW 13 15 7 8 - - -
14/04:30am - - - - - S 13 15 7 8 - - -
14/04:00am - - - - - SSE 15 17 8 9 - - -

Latest Capital City Observations: Canberra | Sydney | Melbourne | Brisbane | Adelaide | Perth | Hobart | Darwin

Other Formats:

Comma delimited format used in spreadsheet applications
http://www.bom.gov.au/fwo/IDQ60901/IDQ60901.94590.axf

JavaScript Object Notation format (JSON) in row-major order
http://www.bom.gov.au/fwo/IDQ60901/IDQ60901.94590.json